createdAt,value
2019-02-25T00:01:49.540Z,103291.94
2019-02-25T00:04:18.081Z,103288.90
2019-02-25T00:06:46.602Z,103300.89
2019-02-25T00:09:15.039Z,103302.61
2019-02-25T00:11:43.626Z,103305.72
2019-02-25T00:14:12.499Z,103289.62
2019-02-25T00:16:41.017Z,103284.80
2019-02-25T00:19:09.479Z,103288.84
2019-02-25T00:21:37.910Z,103289.86
2019-02-25T00:24:06.397Z,103289.11
2019-02-25T00:26:34.932Z,103287.31
2019-02-25T00:29:03.474Z,103286.53
2019-02-25T00:31:31.949Z,103283.50
2019-02-25T00:34:00.768Z,103282.72
2019-02-25T00:36:29.135Z,103270.98
2019-02-25T00:38:57.956Z,103270.69
2019-02-25T00:41:26.820Z,103272.34
2019-02-25T00:43:55.264Z,103274.45
2019-02-25T00:46:23.746Z,103275.38
2019-02-25T00:48:52.293Z,103279.44
2019-02-25T00:51:20.857Z,103274.00
2019-02-25T00:56:57.761Z,103271.95
2019-02-25T00:59:26.551Z,103276.70
2019-02-25T01:01:55.341Z,103284.18
2019-02-25T01:04:23.877Z,103286.90
2019-02-25T01:06:52.361Z,103287.29
2019-02-25T01:09:21.201Z,103285.11
2019-02-25T01:11:49.625Z,103278.56
2019-02-25T01:14:18.100Z,103275.14
2019-02-25T01:16:46.568Z,103275.53
2019-02-25T01:19:15.094Z,103264.55
2019-02-25T01:22:02.851Z,103262.94
2019-02-25T01:24:31.393Z,103264.73
2019-02-25T01:27:00.238Z,103278.04
2019-02-25T01:29:28.742Z,103282.27
2019-02-25T01:31:57.626Z,103279.16
2019-02-25T01:34:26.055Z,103273.47
2019-02-25T01:36:54.611Z,103266.46
2019-02-25T01:39:23.143Z,103258.45
2019-02-25T01:41:51.627Z,103265.67
2019-02-25T01:44:20.222Z,103261.39
2019-02-25T01:46:48.686Z,103261.64
2019-02-25T01:49:17.097Z,103258.45
2019-02-25T01:51:45.511Z,103255.28
2019-02-25T01:54:33.249Z,103256.61
2019-02-25T01:57:01.831Z,103255.81
2019-02-25T01:59:30.314Z,103256.82
2019-02-25T02:01:58.693Z,103250.67
2019-02-25T02:04:27.542Z,103258.61
2019-02-25T02:06:55.924Z,103257.86
2019-02-25T02:09:24.716Z,103248.28
2019-02-25T02:11:53.243Z,103246.17
2019-02-25T02:14:21.708Z,103248.81
2019-02-25T02:16:50.153Z,103248.89
2019-02-25T02:19:18.706Z,103249.85
2019-02-25T02:21:47.431Z,103250.78
2019-02-25T02:24:15.938Z,103250.78
2019-02-25T02:26:44.417Z,103251.72
2019-02-25T02:29:12.851Z,103249.39
2019-02-25T02:31:41.270Z,103245.49
2019-02-25T02:34:09.782Z,103233.59
2019-02-25T02:36:38.530Z,103231.09
2019-02-25T02:39:46.967Z,103234.84
2019-02-25T02:42:55.417Z,103238.56
2019-02-25T02:46:02.631Z,103232.66
2019-02-25T02:49:11.084Z,103233.05
2019-02-25T02:51:39.533Z,103229.38
2019-02-25T02:54:08.005Z,103218.80
2019-02-25T02:56:36.389Z,103213.97
2019-02-25T02:59:04.938Z,103215.40
2019-02-25T03:01:33.381Z,103214.44
2019-02-25T03:04:01.863Z,103217.55
2019-02-25T03:06:30.326Z,103221.23
2019-02-25T03:08:58.783Z,103221.62
2019-02-25T03:11:27.245Z,103201.39
2019-02-25T03:13:55.643Z,103209.40
2019-02-25T03:16:24.207Z,103210.50
2019-02-25T03:18:52.684Z,103228.16
2019-02-25T03:21:21.126Z,103229.09
2019-02-25T03:23:49.620Z,103233.45
2019-02-25T03:26:18.079Z,103234.77
2019-02-25T03:28:46.518Z,103226.45
2019-02-25T03:31:15.021Z,103228.16
2019-02-25T03:33:43.534Z,103234.52
2019-02-25T03:36:12.045Z,103233.37
2019-02-25T03:38:40.634Z,103236.70
2019-02-25T03:41:09.160Z,103233.77
2019-02-25T03:43:37.716Z,103231.41
2019-02-25T03:46:06.098Z,103238.09
2019-02-25T03:48:34.475Z,103242.38
2019-02-25T03:51:02.974Z,103244.16
2019-02-25T03:53:31.346Z,103235.70
2019-02-25T03:55:59.904Z,103227.94
2019-02-25T03:58:28.689Z,103225.83
2019-02-25T04:00:57.221Z,103229.00
2019-02-25T04:03:26.064Z,103224.97
2019-02-25T04:05:54.530Z,103230.33
2019-02-25T04:09:02.942Z,103237.17
2019-02-25T04:11:31.428Z,103231.43
2019-02-25T04:13:59.882Z,103220.92
2019-02-25T04:16:28.372Z,103218.42
2019-02-25T04:18:56.831Z,103227.14
2019-02-25T04:21:25.437Z,103232.42
2019-02-25T04:23:53.983Z,103233.81
2019-02-25T04:26:22.402Z,103221.53
2019-02-25T04:28:51.020Z,103213.67
2019-02-25T04:31:19.570Z,103206.70
2019-02-25T04:33:48.403Z,103203.80
2019-02-25T04:36:16.799Z,103209.73
2019-02-25T04:38:45.386Z,103210.48
2019-02-25T04:41:14.261Z,103203.88
2019-02-25T04:43:42.723Z,103202.33
2019-02-25T04:46:11.109Z,103202.33
2019-02-25T04:48:39.582Z,103220.77
2019-02-25T04:51:08.434Z,103222.77
2019-02-25T04:53:37.077Z,103226.73
2019-02-25T04:56:05.632Z,103228.05
2019-02-25T04:58:34.110Z,103235.76
2019-02-25T05:01:02.642Z,103240.12
2019-02-25T05:03:31.206Z,103242.77
2019-02-25T05:05:59.650Z,103237.48
2019-02-25T05:08:28.283Z,103235.36
2019-02-25T05:10:56.751Z,103237.15
2019-02-25T05:13:25.223Z,103232.79
2019-02-25T05:15:53.856Z,103232.86
2019-02-25T05:18:22.318Z,103229.06
2019-02-25T05:20:50.802Z,103239.24
2019-02-25T05:23:19.205Z,103245.59
2019-02-25T05:25:47.661Z,103257.34
2019-02-25T05:28:16.192Z,103255.09
2019-02-25T05:30:44.839Z,103252.12
2019-02-25T05:33:13.334Z,103262.62
2019-02-25T05:35:41.932Z,103256.95
2019-02-25T05:38:10.453Z,103259.66
2019-02-25T05:40:39.006Z,103257.94
2019-02-25T05:43:07.442Z,103262.00
2019-02-25T05:45:35.967Z,103261.21
2019-02-25T05:48:04.470Z,103265.17
2019-02-25T05:50:32.931Z,103254.61
2019-02-25T05:53:01.441Z,103250.78
2019-02-25T05:55:30.046Z,103253.88
2019-02-25T05:57:58.521Z,103258.80
2019-02-25T06:00:46.521Z,103257.09
2019-02-25T06:03:15.241Z,103262.05
2019-02-25T06:05:43.963Z,103261.52
2019-02-25T06:11:07.249Z,103261.65
2019-02-25T06:13:35.705Z,103260.86
2019-02-25T06:16:04.184Z,103266.30
2019-02-25T06:18:32.596Z,103269.73
2019-02-25T06:21:01.130Z,103266.53
2019-02-25T06:23:29.746Z,103263.89
2019-02-25T06:25:58.126Z,103265.22
2019-02-25T06:28:26.590Z,103263.50
2019-02-25T06:30:55.145Z,103260.86
2019-02-25T06:33:23.715Z,103262.17
2019-02-25T06:35:52.195Z,103262.97
2019-02-25T06:38:20.698Z,103271.29
2019-02-25T06:40:49.267Z,103274.45
2019-02-25T06:43:17.814Z,103277.09
2019-02-25T06:45:46.358Z,103272.28
2019-02-25T06:48:14.767Z,103278.29
2019-02-25T06:50:43.168Z,103278.52
2019-02-25T06:53:11.601Z,103280.80
2019-02-25T06:55:40.164Z,103279.38
2019-02-25T06:58:08.603Z,103287.63
2019-02-25T07:00:37.499Z,103286.84
2019-02-25T07:03:05.971Z,103299.45
2019-02-25T07:08:42.821Z,103304.05
2019-02-25T07:11:30.399Z,103306.16
2019-02-25T07:14:18.002Z,103307.25
2019-02-25T07:22:30.147Z,103319.09
2019-02-25T07:25:17.679Z,103313.81
2019-02-25T07:28:05.512Z,103314.20
2019-02-25T07:36:11.089Z,103321.66
2019-02-25T07:47:02.357Z,103321.25
2019-02-25T07:49:49.938Z,103327.41
2019-02-25T07:55:47.402Z,103324.92
2019-02-25T07:58:35.309Z,103331.22
2019-02-25T08:01:22.862Z,103326.79
2019-02-25T08:06:59.503Z,103326.54
2019-02-25T08:09:47.096Z,103329.25
2019-02-25T08:12:34.696Z,103327.45
2019-02-25T08:15:22.357Z,103327.13
2019-02-25T08:18:09.931Z,103320.17
2019-02-25T08:23:32.751Z,103312.87
2019-02-25T08:26:20.433Z,103309.20
2019-02-25T08:29:07.919Z,103303.80
2019-02-25T08:31:55.600Z,103299.48
2019-02-25T08:34:43.283Z,103294.70
2019-02-25T08:37:51.780Z,103301.13
2019-02-25T08:41:00.310Z,103300.31
2019-02-25T08:51:22.497Z,103298.73
2019-02-25T08:53:51.100Z,103311.80
2019-02-25T08:56:19.629Z,103309.64
2019-02-25T08:58:48.101Z,103303.90
2019-02-25T09:01:16.990Z,103306.80
2019-02-25T09:03:45.521Z,103318.37
2019-02-25T09:06:14.054Z,103317.38
2019-02-25T09:08:42.950Z,103318.34
2019-02-25T09:11:14.050Z,103314.95
2019-02-25T09:13:42.073Z,103317.83
2019-02-25T09:16:10.961Z,103317.09
2019-02-25T09:18:39.746Z,103309.90
2019-02-25T09:21:08.394Z,103310.19
2019-02-25T09:23:36.802Z,103312.37
2019-02-25T09:26:05.243Z,103315.00
2019-02-25T09:31:28.689Z,103309.13
2019-02-25T09:33:57.202Z,103306.70
2019-02-25T09:36:25.844Z,103311.42
2019-02-25T09:38:56.674Z,103302.68
2019-02-25T09:41:29.817Z,103304.52
2019-02-25T09:43:55.402Z,103308.50
2019-02-25T09:46:24.406Z,103293.59
2019-02-25T09:48:52.875Z,103287.47
2019-02-25T09:51:21.409Z,103297.45
2019-02-25T09:54:04.040Z,103288.45
2019-02-25T09:56:20.059Z,103296.81
2019-02-25T09:58:48.545Z,103297.91
2019-02-25T10:01:17.335Z,103284.86
2019-02-25T10:03:45.909Z,103280.99
2019-02-25T10:06:14.807Z,103278.16
2019-02-25T10:08:43.293Z,103277.16
2019-02-25T10:11:11.901Z,103266.16
2019-02-25T10:13:40.865Z,103266.47
2019-02-25T10:16:28.606Z,103261.89
2019-02-25T10:18:57.073Z,103248.72
2019-02-25T10:21:25.616Z,103250.17
2019-02-25T10:23:54.086Z,103244.25
2019-02-25T10:26:22.709Z,103249.59
2019-02-25T10:28:51.240Z,103251.34
2019-02-25T10:31:19.814Z,103250.38
2019-02-25T10:33:48.417Z,103255.62
2019-02-25T10:36:16.886Z,103255.02
2019-02-25T10:38:45.580Z,103248.09
2019-02-25T10:41:14.150Z,103248.45
2019-02-25T10:43:42.770Z,103253.45
2019-02-25T10:46:13.349Z,103247.33
2019-02-25T10:48:41.359Z,103244.57
2019-02-25T10:51:11.552Z,103233.20
2019-02-25T10:53:40.102Z,103224.78
2019-02-25T10:56:49.804Z,103221.66
2019-02-25T10:59:18.820Z,103216.27
2019-02-25T11:01:47.547Z,103211.05
2019-02-25T11:04:19.521Z,103218.97
2019-02-25T11:06:47.734Z,103219.64
2019-02-25T11:11:52.699Z,103217.53
2019-02-25T11:14:21.761Z,103214.59
2019-02-25T11:16:52.119Z,103207.73
2019-02-25T11:19:22.379Z,103195.97
2019-02-25T11:21:51.066Z,103194.77
2019-02-25T11:24:21.125Z,103196.31
2019-02-25T11:26:49.714Z,103196.80
2019-02-25T11:29:18.231Z,103192.16
2019-02-25T11:31:47.730Z,103176.73
2019-02-25T11:34:17.442Z,103175.30
2019-02-25T11:36:46.003Z,103178.92
2019-02-25T11:42:05.535Z,103185.95
2019-02-25T11:44:34.269Z,103187.41
2019-02-25T11:47:02.829Z,103186.98
2019-02-25T11:49:31.278Z,103191.31
2019-02-25T11:52:00.135Z,103186.70
2019-02-25T11:54:28.734Z,103187.09
2019-02-25T11:56:57.202Z,103174.84
2019-02-25T11:59:25.743Z,103173.67
2019-02-25T12:01:54.209Z,103167.17
2019-02-25T12:04:22.719Z,103165.15
2019-02-25T12:06:51.356Z,103163.96
2019-02-25T12:09:19.946Z,103162.98
2019-02-25T12:11:48.550Z,103139.23
2019-02-25T12:14:17.103Z,103141.13
2019-02-25T12:16:45.571Z,103132.80
2019-02-25T12:19:17.854Z,103114.72
2019-02-25T12:21:44.309Z,103121.50
2019-02-25T12:24:12.943Z,103115.66
2019-02-25T12:26:41.746Z,103107.73
2019-02-25T12:29:11.043Z,103101.75
2019-02-25T12:31:40.502Z,103094.05
2019-02-25T12:34:09.062Z,103090.83
2019-02-25T12:36:37.592Z,103096.48
2019-02-25T12:39:46.050Z,103085.03
2019-02-25T12:42:14.510Z,103075.58
2019-02-25T12:44:43.000Z,103064.23
2019-02-25T12:47:11.607Z,103072.68
2019-02-25T12:49:40.159Z,103056.70
2019-02-25T12:52:08.782Z,103051.05
2019-02-25T12:54:37.421Z,103056.53
2019-02-25T12:57:06.034Z,103043.91
2019-02-25T12:59:34.729Z,103050.09
2019-02-25T13:02:03.606Z,103037.01
2019-02-25T13:04:32.501Z,103031.47
2019-02-25T13:07:01.042Z,103029.03
2019-02-25T13:09:29.556Z,103035.08
2019-02-25T13:11:58.112Z,103042.31
2019-02-25T13:14:26.620Z,103040.16
2019-02-25T13:16:55.628Z,103039.12
2019-02-25T13:19:24.161Z,103044.49
2019-02-25T13:21:52.824Z,103038.80
2019-02-25T13:24:21.261Z,103042.41
2019-02-25T13:26:49.746Z,103046.84
2019-02-25T13:29:18.277Z,103057.00
2019-02-25T13:31:46.832Z,103054.48
2019-02-25T13:34:15.445Z,103047.91
2019-02-25T13:36:44.312Z,103043.53
2019-02-25T13:39:52.741Z,103047.92
2019-02-25T13:42:21.258Z,103048.81
2019-02-25T13:44:49.765Z,103052.84
2019-02-25T13:47:18.464Z,103060.09
2019-02-25T13:49:47.276Z,103060.03
2019-02-25T13:52:15.751Z,103072.20
2019-02-25T13:54:44.310Z,103071.41
2019-02-25T13:57:12.893Z,103070.78
2019-02-25T13:59:42.030Z,103066.89
2019-02-25T14:02:10.479Z,103061.28
2019-02-25T14:04:38.952Z,103064.37
2019-02-25T14:07:07.493Z,103062.55
2019-02-25T14:09:36.323Z,103057.09
2019-02-25T14:12:24.180Z,103051.92
2019-02-25T14:14:53.255Z,103044.14
2019-02-25T14:17:21.802Z,103043.88
2019-02-25T14:19:51.953Z,103034.14
2019-02-25T14:22:20.618Z,103027.22
2019-02-25T14:24:49.088Z,103027.70
2019-02-25T14:27:17.670Z,103027.05
2019-02-25T14:29:48.711Z,103025.98
2019-02-25T14:32:16.402Z,103022.19
2019-02-25T14:34:46.468Z,103013.37
2019-02-25T14:37:57.188Z,103010.44
2019-02-25T14:40:26.895Z,103008.40
2019-02-25T14:42:56.828Z,103004.77
2019-02-25T14:45:26.845Z,103005.05
2019-02-25T14:47:59.492Z,102993.13
2019-02-25T14:50:27.043Z,102990.43
2019-02-25T14:52:55.644Z,102989.46
2019-02-25T14:55:47.760Z,102993.35
2019-02-25T14:58:17.416Z,102987.97
2019-02-25T15:00:45.795Z,102982.00
2019-02-25T15:03:14.335Z,102985.00
2019-02-25T15:05:43.048Z,102992.70
2019-02-25T15:08:51.476Z,102993.94
2019-02-25T15:11:20.432Z,102997.50
2019-02-25T15:13:48.947Z,102996.14
2019-02-25T15:16:17.431Z,102991.71
2019-02-25T15:18:46.391Z,102992.40
2019-02-25T15:21:15.986Z,102990.72
2019-02-25T15:23:45.285Z,102986.54
2019-02-25T15:26:14.990Z,102987.95
2019-02-25T15:28:44.478Z,102983.94
2019-02-25T15:31:14.120Z,102979.80
2019-02-25T15:33:43.728Z,102982.26
2019-02-25T15:36:13.471Z,102983.11
2019-02-25T15:38:43.393Z,102989.41
2019-02-25T15:41:12.799Z,102992.29
2019-02-25T15:43:41.665Z,102993.33
2019-02-25T15:48:59.220Z,102996.79
2019-02-25T15:51:30.360Z,103004.41
2019-02-25T15:53:59.886Z,103001.91
2019-02-25T15:56:29.874Z,102999.59
2019-02-25T15:58:58.867Z,103000.22
2019-02-25T16:01:27.389Z,103003.97
2019-02-25T16:04:38.142Z,103000.05
2019-02-25T16:07:46.270Z,102998.27
2019-02-25T16:10:55.765Z,102993.36
2019-02-25T16:13:25.035Z,102998.69
2019-02-25T16:15:53.503Z,102994.00
2019-02-25T16:21:32.451Z,102994.59
2019-02-25T16:24:04.040Z,102989.86
2019-02-25T16:29:08.836Z,102982.67
2019-02-25T16:31:37.601Z,102986.48
2019-02-25T16:34:07.321Z,102978.63
2019-02-25T16:36:35.992Z,102978.91
2019-02-25T16:39:44.418Z,102972.63
2019-02-25T16:42:12.955Z,102978.86
2019-02-25T16:44:41.510Z,102980.47
2019-02-25T16:47:11.861Z,102977.46
2019-02-25T16:49:40.188Z,102986.33
2019-02-25T16:52:08.676Z,102990.85
2019-02-25T16:54:37.224Z,102993.91
2019-02-25T16:57:07.257Z,102996.34
2019-02-25T16:59:36.044Z,102999.52
2019-02-25T17:02:06.893Z,102991.38
2019-02-25T17:04:35.256Z,102990.67
2019-02-25T17:07:23.125Z,103005.23
2019-02-25T17:09:51.679Z,103004.17
2019-02-25T17:12:21.162Z,103000.16
2019-02-25T17:14:50.635Z,102998.23
2019-02-25T17:17:19.254Z,102992.77
2019-02-25T17:19:47.736Z,103000.19
2019-02-25T17:22:16.185Z,102995.23
2019-02-25T17:24:44.779Z,103000.44
2019-02-25T17:27:14.189Z,103000.34
2019-02-25T17:29:43.851Z,103003.23
2019-02-25T17:32:12.472Z,103005.17
2019-02-25T17:34:41.822Z,102997.80
2019-02-25T17:37:12.651Z,103003.36
2019-02-25T17:39:41.912Z,102998.26
2019-02-25T17:44:49.424Z,102995.48
2019-02-25T17:47:24.386Z,102996.33
2019-02-25T17:49:48.329Z,103008.09
2019-02-25T17:52:20.284Z,103008.20
2019-02-25T17:54:48.791Z,103010.05
2019-02-25T17:57:19.052Z,103007.98
2019-02-25T17:59:48.756Z,103003.84
2019-02-25T18:02:17.837Z,103004.10
2019-02-25T18:07:42.016Z,103003.36
2019-02-25T18:10:51.969Z,102990.22
2019-02-25T18:13:21.976Z,102989.03
2019-02-25T18:16:04.380Z,102972.17
2019-02-25T18:18:32.862Z,102978.47
2019-02-25T18:21:01.487Z,102976.66
2019-02-25T18:23:30.463Z,102973.14
2019-02-25T18:25:58.970Z,102975.80
2019-02-25T18:28:27.509Z,102981.42
2019-02-25T18:30:59.701Z,102979.83
2019-02-25T18:33:29.071Z,102981.91
2019-02-25T18:36:00.167Z,102991.36
2019-02-25T18:38:29.549Z,102983.92
2019-02-25T18:41:00.412Z,102987.22
2019-02-25T18:43:30.334Z,102981.88
2019-02-25T18:46:00.630Z,102976.77
2019-02-25T18:48:29.761Z,102968.52
2019-02-25T18:50:59.658Z,102957.98
2019-02-25T18:54:08.777Z,102962.59
2019-02-25T18:56:38.183Z,102971.19
2019-02-25T18:59:12.211Z,102974.81
2019-02-25T19:01:57.409Z,102976.64
2019-02-25T19:04:25.916Z,102985.86
2019-02-25T19:06:54.411Z,102980.38
2019-02-25T19:09:23.859Z,102984.98
2019-02-25T19:12:33.022Z,102985.23
2019-02-25T19:15:03.134Z,102985.45
2019-02-25T19:17:31.991Z,102979.53
2019-02-25T19:20:00.474Z,102986.09
2019-02-25T19:25:44.452Z,102987.05
2019-02-25T19:28:16.493Z,102990.79
2019-02-25T19:30:43.546Z,102989.34
2019-02-25T19:33:12.105Z,102987.64
2019-02-25T19:35:41.167Z,102983.27
2019-02-25T19:40:51.298Z,102966.16
2019-02-25T19:43:17.041Z,102968.83
2019-02-25T19:45:45.707Z,102979.49
2019-02-25T19:48:14.247Z,102971.02
2019-02-25T19:50:50.527Z,102969.69
2019-02-25T19:53:15.203Z,102969.83
2019-02-25T19:55:53.839Z,102967.16
2019-02-25T19:58:24.181Z,102973.45
2019-02-25T20:00:56.098Z,102971.16
2019-02-25T20:03:23.059Z,102969.94
2019-02-25T20:05:53.838Z,102970.30
2019-02-25T20:09:01.801Z,102972.13
2019-02-25T20:11:30.245Z,102974.05
2019-02-25T20:14:00.930Z,102977.30
2019-02-25T20:16:30.404Z,102980.45
2019-02-25T20:19:00.335Z,102967.48
2019-02-25T20:21:31.040Z,102973.05
2019-02-25T20:24:00.033Z,102960.93
2019-02-25T20:26:32.491Z,102959.34
2019-02-25T20:29:01.978Z,102957.78
2019-02-25T20:31:30.774Z,102959.33
2019-02-25T20:33:59.955Z,102964.30
2019-02-25T20:36:30.637Z,102968.66
2019-02-25T20:38:59.557Z,102970.21
2019-02-25T20:41:28.849Z,102963.80
2019-02-25T20:43:58.860Z,102948.03
2019-02-25T20:46:30.339Z,102944.40
2019-02-25T20:48:59.941Z,102946.58
2019-02-25T20:51:29.889Z,102939.17
2019-02-25T20:53:59.290Z,102936.14
2019-02-25T20:56:28.794Z,102935.40
2019-02-25T20:59:38.234Z,102934.07
2019-02-25T21:02:10.072Z,102932.39
2019-02-25T21:04:38.729Z,102936.61
2019-02-25T21:07:08.831Z,102928.73
2019-02-25T21:09:38.253Z,102932.50
2019-02-25T21:12:08.200Z,102935.17
2019-02-25T21:14:40.308Z,102932.13
2019-02-25T21:17:08.240Z,102928.84
2019-02-25T21:19:37.875Z,102924.24
2019-02-25T21:24:37.473Z,102905.91
2019-02-25T21:27:08.190Z,102914.53
2019-02-25T21:29:38.832Z,102922.90
2019-02-25T21:32:07.170Z,102920.36
2019-02-25T21:34:35.733Z,102916.23
2019-02-25T21:37:04.192Z,102906.17
2019-02-25T21:40:12.635Z,102906.77
2019-02-25T21:42:43.781Z,102909.54
2019-02-25T21:45:52.169Z,102897.80
2019-02-25T21:48:25.040Z,102914.00
2019-02-25T21:50:52.242Z,102913.14
2019-02-25T21:53:20.765Z,102902.74
2019-02-25T21:55:51.090Z,102896.89
2019-02-25T21:58:21.247Z,102896.55
2019-02-25T22:00:50.389Z,102899.80
2019-02-25T22:03:19.512Z,102903.92
2019-02-25T22:05:53.233Z,102899.43
2019-02-25T22:08:22.149Z,102903.64
2019-02-25T22:10:50.216Z,102903.91
2019-02-25T22:13:20.734Z,102911.89
2019-02-25T22:15:48.837Z,102905.93
2019-02-25T22:18:17.729Z,102907.61
2019-02-25T22:20:47.655Z,102908.68
2019-02-25T22:23:37.153Z,102918.24
2019-02-25T22:26:05.980Z,102913.23
2019-02-25T22:28:35.369Z,102912.26
2019-02-25T22:31:07.921Z,102915.02
2019-02-25T22:33:34.897Z,102913.09
2019-02-25T22:36:03.273Z,102912.45
2019-02-25T22:38:31.828Z,102913.55
2019-02-25T22:41:02.264Z,102918.70
2019-02-25T22:43:31.121Z,102921.46
2019-02-25T22:46:00.261Z,102928.73
2019-02-25T22:48:29.988Z,102935.38
2019-02-25T22:51:00.836Z,102932.19
2019-02-25T22:53:28.717Z,102928.33
2019-02-25T22:55:57.091Z,102925.30
2019-02-25T23:01:20.014Z,102926.15
2019-02-25T23:03:52.147Z,102921.52
2019-02-25T23:06:20.745Z,102912.30
2019-02-25T23:09:28.960Z,102906.34
2019-02-25T23:11:57.568Z,102902.35
2019-02-25T23:14:26.033Z,102899.69
2019-02-25T23:16:54.553Z,102890.01
2019-02-25T23:19:23.109Z,102882.02
2019-02-25T23:21:51.549Z,102882.98
2019-02-25T23:24:21.689Z,102879.95
2019-02-25T23:26:50.790Z,102870.27
2019-02-25T23:29:22.528Z,102860.58
2019-02-25T23:31:50.662Z,102856.25
2019-02-25T23:34:20.529Z,102843.77
2019-02-25T23:36:51.605Z,102848.27
2019-02-25T23:39:19.822Z,102847.90
2019-02-25T23:44:43.410Z,102853.22
2019-02-25T23:47:11.948Z,102859.70
2019-02-25T23:49:41.451Z,102854.02
2019-02-25T23:52:10.467Z,102867.55
2019-02-25T23:54:38.899Z,102857.86
2019-02-25T23:57:07.285Z,102855.20
2019-02-25T23:59:35.773Z,102863.77
